Time;durP1;ratioP1;P1;durP2;ratioP2;P2;SDS_P1;SDS_P2;PMS_P1;PMS_P2;Temp;Humidity;BMP_temperature;BMP_pressure;BME280_temperature;BME280_humidity;BME280_pressure;Samples;Min_cycle;Max_cycle;Signal;HPM_P1;HPM_P2
2022/06/25 00:01:51;;;;;;;5.90;3.40;;;;;;;;;;5070637;28;20453;-66
2022/06/25 00:07:03;;;;;;;3.83;3.28;;;;;;;;;;5070982;28;20048;-68
2022/06/25 00:09:30;;;;;;;5.15;3.00;;;;;;;;;;5054410;28;20040;-67
2022/06/25 00:14:41;;;;;;;5.68;3.38;;;;;;;;;;5071771;28;20082;-67
2022/06/25 00:17:08;;;;;;;3.90;3.47;;;;;;;;;;5054393;28;20052;-68
2022/06/25 00:19:35;;;;;;;7.22;3.53;;;;;;;;;;5070588;28;20071;-68
2022/06/25 00:22:02;;;;;;;4.85;3.92;;;;;;;;;;5054072;28;20518;-67
2022/06/25 00:24:29;;;;;;;3.90;3.45;;;;;;;;;;5070708;28;20461;-67
2022/06/25 00:26:55;;;;;;;7.10;3.30;;;;;;;;;;5071002;28;20044;-67
2022/06/25 00:29:22;;;;;;;4.18;3.28;;;;;;;;;;5070760;28;20075;-68
2022/06/25 00:31:49;;;;;;;4.95;3.40;;;;;;;;;;5071695;28;20071;-68
2022/06/25 00:34:15;;;;;;;4.75;3.45;;;;;;;;;;5071709;28;20083;-67
2022/06/25 00:36:42;;;;;;;3.60;3.10;;;;;;;;;;5070718;28;20052;-67
2022/06/25 00:39:09;;;;;;;3.70;3.40;;;;;;;;;;5070561;28;20052;-68
2022/06/25 00:41:35;;;;;;;6.80;3.30;;;;;;;;;;5070209;28;20044;-66
2022/06/25 00:44:08;;;;;;;3.20;3.00;;;;;;;;;;5072039;28;20060;-66
2022/06/25 00:46:35;;;;;;;4.45;3.53;;;;;;;;;;5070314;28;20048;-67
2022/06/25 00:49:03;;;;;;;4.05;3.13;;;;;;;;;;5053560;28;20131;-66
2022/06/25 00:51:33;;;;;;;4.30;3.30;;;;;;;;;;5071411;28;20045;-66
2022/06/25 00:54:04;;;;;;;3.08;2.78;;;;;;;;;;5037175;28;20063;-67
2022/06/25 00:56:36;;;;;;;3.08;2.72;;;;;;;;;;5070169;28;20078;-67
2022/06/25 00:59:04;;;;;;;5.50;3.45;;;;;;;;;;5071541;28;20102;-68
2022/06/25 01:01:35;;;;;;;5.38;3.10;;;;;;;;;;5069944;28;20094;-66
2022/06/25 01:04:02;;;;;;;8.02;3.78;;;;;;;;;;5070165;28;20048;-67
2022/06/25 01:06:29;;;;;;;6.78;3.20;;;;;;;;;;5070021;28;20076;-66
2022/06/25 01:08:56;;;;;;;6.00;3.10;;;;;;;;;;5070815;28;20503;-67
2022/06/25 01:11:24;;;;;;;7.20;3.00;;;;;;;;;;5057340;28;20055;-67
2022/06/25 01:13:52;;;;;;;3.28;2.78;;;;;;;;;;5074960;28;20056;-67
2022/06/25 01:16:22;;;;;;;5.60;3.10;;;;;;;;;;5073601;28;20166;-66
2022/06/25 01:18:49;;;;;;;3.70;3.13;;;;;;;;;;5073723;28;20147;-66
2022/06/25 01:21:16;;;;;;;8.23;3.40;;;;;;;;;;5073420;28;20048;-66
2022/06/25 01:23:42;;;;;;;7.05;3.40;;;;;;;;;;5073642;28;20049;-67
2022/06/25 01:26:09;;;;;;;3.20;2.90;;;;;;;;;;5073830;28;20052;-67
2022/06/25 01:28:36;;;;;;;2.90;2.70;;;;;;;;;;5073638;28;20048;-67
2022/06/25 01:31:03;;;;;;;3.90;3.25;;;;;;;;;;5073595;28;20065;-66
2022/06/25 01:33:30;;;;;;;3.08;2.78;;;;;;;;;;5074881;28;20417;-66
2022/06/25 01:35:56;;;;;;;2.90;2.70;;;;;;;;;;5056724;28;20080;-65
2022/06/25 01:38:23;;;;;;;4.75;3.17;;;;;;;;;;5074667;28;20060;-66
2022/06/25 01:40:50;;;;;;;5.68;3.45;;;;;;;;;;5074213;28;20106;-66
2022/06/25 01:43:17;;;;;;;5.57;3.08;;;;;;;;;;5074429;28;20499;-66
2022/06/25 01:45:44;;;;;;;3.08;2.85;;;;;;;;;;5073132;28;20075;-65
2022/06/25 01:48:11;;;;;;;5.32;2.90;;;;;;;;;;5074290;28;20568;-65
2022/06/25 01:50:38;;;;;;;3.08;2.78;;;;;;;;;;5072957;28;20078;-66
2022/06/25 01:53:05;;;;;;;4.40;2.90;;;;;;;;;;5074241;28;20051;-66
2022/06/25 01:55:32;;;;;;;5.15;2.78;;;;;;;;;;5040024;28;20048;-66
2022/06/25 01:57:59;;;;;;;2.83;2.63;;;;;;;;;;5073056;28;20053;-66
2022/06/25 02:00:28;;;;;;;4.07;2.95;;;;;;;;;;5074032;28;20094;-65
2022/06/25 02:02:55;;;;;;;4.78;2.97;;;;;;;;;;5072896;28;20071;-66
2022/06/25 02:08:09;;;;;;;4.28;3.88;;;;;;;;;;5073107;28;20449;-65
2022/06/25 02:10:36;;;;;;;2.97;2.70;;;;;;;;;;5073019;28;20040;-66
2022/06/25 02:13:03;;;;;;;3.35;2.83;;;;;;;;;;5072632;28;20059;-66
2022/06/25 02:15:30;;;;;;;4.78;3.10;;;;;;;;;;5056232;28;20434;-66
2022/06/25 02:17:57;;;;;;;5.38;3.40;;;;;;;;;;5074040;28;20052;-66
2022/06/25 02:20:23;;;;;;;2.88;2.63;;;;;;;;;;5071906;28;20051;-66
2022/06/25 02:22:50;;;;;;;2.60;2.40;;;;;;;;;;5072295;28;20114;-66
2022/06/25 02:25:17;;;;;;;2.97;2.67;;;;;;;;;;5072731;28;20057;-66
2022/06/25 02:27:44;;;;;;;4.88;3.25;;;;;;;;;;5074147;28;20052;-66
2022/06/25 02:30:11;;;;;;;5.43;3.10;;;;;;;;;;5073614;28;20457;-66
2022/06/25 02:32:38;;;;;;;3.10;2.78;;;;;;;;;;5072419;28;20049;-65
2022/06/25 02:35:05;;;;;;;4.40;2.70;;;;;;;;;;5073402;28;20055;-66
2022/06/25 02:37:32;;;;;;;3.90;2.65;;;;;;;;;;5072166;28;20056;-66
2022/06/25 02:39:59;;;;;;;4.78;2.83;;;;;;;;;;5072209;28;20521;-66
2022/06/25 02:42:32;;;;;;;4.35;2.45;;;;;;;;;;5073365;28;20055;-66
2022/06/25 02:44:59;;;;;;;3.40;3.00;;;;;;;;;;5072346;28;20476;-66
2022/06/25 02:47:25;;;;;;;3.83;2.88;;;;;;;;;;5072409;28;20052;-66
2022/06/25 02:49:52;;;;;;;4.18;2.75;;;;;;;;;;5073479;28;20063;-65
2022/06/25 02:52:19;;;;;;;3.92;3.33;;;;;;;;;;5073097;28;20044;-66
2022/06/25 02:54:45;;;;;;;3.13;2.83;;;;;;;;;;5073204;28;20067;-66
2022/06/25 02:59:58;;;;;;;8.10;3.88;;;;;;;;;;5071930;28;20090;-66
2022/06/25 03:02:24;;;;;;;4.93;3.50;;;;;;;;;;5071698;28;20117;-66
2022/06/25 03:04:51;;;;;;;3.35;3.05;;;;;;;;;;5072764;28;20048;-66
2022/06/25 03:07:18;;;;;;;3.25;2.95;;;;;;;;;;5072752;28;20059;-65
2022/06/25 03:09:45;;;;;;;3.75;2.78;;;;;;;;;;5072752;28;20056;-66
2022/06/25 03:12:12;;;;;;;3.55;2.65;;;;;;;;;;5071340;28;20553;-65
2022/06/25 03:14:39;;;;;;;3.92;2.40;;;;;;;;;;5094653;22;20110;-65
2022/06/25 03:17:05;;;;;;;3.85;2.47;;;;;;;;;;5051553;28;20118;-65
2022/06/25 03:19:32;;;;;;;5.22;2.60;;;;;;;;;;5052612;28;20507;-65
2022/06/25 03:21:58;;;;;;;3.28;2.33;;;;;;;;;;5052226;28;20522;-65
2022/06/25 03:24:25;;;;;;;3.63;2.35;;;;;;;;;;5052475;28;20541;-65
2022/06/25 03:26:52;;;;;;;5.07;2.30;;;;;;;;;;5052340;28;20049;-65
2022/06/25 03:29:18;;;;;;;2.78;2.58;;;;;;;;;;5052513;28;20056;-65
2022/06/25 03:31:45;;;;;;;2.67;2.47;;;;;;;;;;5052036;28;20057;-65
2022/06/25 03:34:12;;;;;;;3.67;2.42;;;;;;;;;;5052347;28;20122;-65
2022/06/25 03:36:38;;;;;;;3.25;2.15;;;;;;;;;;5052169;28;20532;-65
2022/06/25 03:39:05;;;;;;;5.22;2.58;;;;;;;;;;5052450;28;20052;-65
2022/06/25 03:41:38;;;;;;;3.10;2.30;;;;;;;;;;5052016;28;20091;-65
2022/06/25 03:44:10;;;;;;;5.70;2.78;;;;;;;;;;5052490;28;20694;-65
2022/06/25 03:46:38;;;;;;;2.75;2.55;;;;;;;;;;5052197;28;20049;-65
2022/06/25 03:49:06;;;;;;;2.55;2.33;;;;;;;;;;5052025;28;20056;-65
2022/06/25 03:51:32;;;;;;;2.97;2.63;;;;;;;;;;5051824;28;20048;-65
2022/06/25 03:53:59;;;;;;;2.67;2.35;;;;;;;;;;5052207;28;20049;-65
2022/06/25 03:56:26;;;;;;;4.72;2.70;;;;;;;;;;5050729;28;20503;-65
2022/06/25 03:58:53;;;;;;;4.93;2.70;;;;;;;;;;5052129;28;20060;-65
2022/06/25 04:01:23;;;;;;;3.30;3.00;;;;;;;;;;5051628;28;20041;-65
2022/06/25 04:03:50;;;;;;;3.08;2.50;;;;;;;;;;5052024;28;20096;-65
2022/06/25 04:06:17;;;;;;;4.72;2.92;;;;;;;;;;5051955;28;20048;-65
2022/06/25 04:08:43;;;;;;;4.05;3.00;;;;;;;;;;5051977;28;20049;-65
2022/06/25 04:11:10;;;;;;;6.53;3.13;;;;;;;;;;5051863;28;20045;-65
2022/06/25 04:13:37;;;;;;;4.45;2.63;;;;;;;;;;5051782;28;20060;-65
2022/06/25 04:16:04;;;;;;;7.68;2.80;;;;;;;;;;5053095;28;20052;-64
2022/06/25 04:18:31;;;;;;;6.60;3.10;;;;;;;;;;5053978;28;20049;-65
2022/06/25 04:20:59;;;;;;;4.00;3.38;;;;;;;;;;5051440;28;20045;-65
2022/06/25 04:23:26;;;;;;;5.30;3.53;;;;;;;;;;5051804;28;20052;-64
2022/06/25 04:25:53;;;;;;;5.28;2.97;;;;;;;;;;5052097;28;20053;-64
2022/06/25 04:31:05;;;;;;;3.38;3.05;;;;;;;;;;5051851;28;20098;-64
2022/06/25 04:33:31;;;;;;;5.07;3.30;;;;;;;;;;5051408;28;20110;-64
2022/06/25 04:35:58;;;;;;;4.00;3.20;;;;;;;;;;5051808;28;20049;-64
2022/06/25 04:38:26;;;;;;;3.60;2.90;;;;;;;;;;5051761;28;20086;-64
2022/06/25 04:40:52;;;;;;;3.83;3.42;;;;;;;;;;5051389;28;20049;-64
2022/06/25 04:43:19;;;;;;;5.30;3.75;;;;;;;;;;5051464;28;20056;-64
2022/06/25 04:45:45;;;;;;;7.65;3.40;;;;;;;;;;5055240;28;20102;-64
2022/06/25 04:48:12;;;;;;;4.45;3.20;;;;;;;;;;5055593;28;20087;-64
2022/06/25 04:50:45;;;;;;;2.90;2.70;;;;;;;;;;5055507;28;20041;-64
2022/06/25 04:53:12;;;;;;;3.88;2.92;;;;;;;;;;5055334;28;20102;-64
2022/06/25 04:55:39;;;;;;;3.78;2.40;;;;;;;;;;5055207;28;20049;-64
2022/06/25 04:58:05;;;;;;;4.07;2.40;;;;;;;;;;5055522;28;20067;-64
2022/06/25 05:00:32;;;;;;;4.32;2.10;;;;;;;;;;5055166;28;20049;-64
2022/06/25 05:03:06;;;;;;;3.17;2.22;;;;;;;;;;5054098;28;20056;-64
2022/06/25 05:05:32;;;;;;;3.25;2.30;;;;;;;;;;5053978;28;20488;-64
2022/06/25 05:07:59;;;;;;;2.03;1.90;;;;;;;;;;5055124;28;20053;-64
2022/06/25 05:10:26;;;;;;;3.22;2.20;;;;;;;;;;5055102;28;20056;-64
2022/06/25 05:15:39;;;;;;;2.00;1.75;;;;;;;;;;5054876;28;20052;-64
2022/06/25 05:18:07;;;;;;;2.38;1.75;;;;;;;;;;5054889;28;20045;-64
2022/06/25 05:20:38;;;;;;;2.35;1.80;;;;;;;;;;5054678;28;20673;-64
2022/06/25 05:23:05;;;;;;;2.33;1.85;;;;;;;;;;5054901;28;20045;-64
2022/06/25 05:25:32;;;;;;;1.88;1.60;;;;;;;;;;5055066;28;20053;-64
2022/06/25 05:27:58;;;;;;;4.03;1.70;;;;;;;;;;5054847;28;20049;-64
2022/06/25 05:30:25;;;;;;;2.78;1.45;;;;;;;;;;5054747;28;20090;-64
2022/06/25 05:32:52;;;;;;;3.45;1.70;;;;;;;;;;5054427;28;20045;-64
2022/06/25 05:35:19;;;;;;;2.35;1.58;;;;;;;;;;5054507;28;20060;-64
2022/06/25 05:37:45;;;;;;;2.15;1.73;;;;;;;;;;5054723;28;20056;-64
2022/06/25 05:40:12;;;;;;;2.95;1.83;;;;;;;;;;5053316;28;20562;-64
2022/06/25 05:42:39;;;;;;;2.00;1.73;;;;;;;;;;5054395;28;20041;-64
2022/06/25 05:45:06;;;;;;;1.65;1.38;;;;;;;;;;5054412;28;20052;-64
2022/06/25 05:47:33;;;;;;;1.85;1.30;;;;;;;;;;5054400;28;20060;-65
2022/06/25 05:50:00;;;;;;;2.42;1.52;;;;;;;;;;5054527;28;20558;-64
2022/06/25 05:52:27;;;;;;;1.67;1.58;;;;;;;;;;5054398;28;20524;-65
2022/06/25 05:54:53;;;;;;;3.85;1.52;;;;;;;;;;5054067;28;20565;-64
2022/06/25 05:57:20;;;;;;;1.95;1.60;;;;;;;;;;5054422;28;20049;-64
2022/06/25 05:59:46;;;;;;;5.15;1.42;;;;;;;;;;5054125;28;20103;-64
2022/06/25 06:02:13;;;;;;;2.95;1.33;;;;;;;;;;5053659;28;20459;-64
2022/06/25 06:04:40;;;;;;;1.50;1.17;;;;;;;;;;5054186;28;20051;-64
2022/06/25 06:07:06;;;;;;;1.60;1.50;;;;;;;;;;5054157;28;20048;-64
2022/06/25 06:09:33;;;;;;;1.60;1.50;;;;;;;;;;5054177;28;20247;-65
2022/06/25 06:12:00;;;;;;;1.88;1.30;;;;;;;;;;5053811;28;20462;-64
2022/06/25 06:14:26;;;;;;;1.98;1.50;;;;;;;;;;5053815;28;20049;-65
2022/06/25 06:16:53;;;;;;;1.35;1.25;;;;;;;;;;5053572;28;20071;-64
2022/06/25 06:19:20;;;;;;;1.40;1.23;;;;;;;;;;5053725;28;20168;-64
2022/06/25 06:21:47;;;;;;;2.08;1.23;;;;;;;;;;5053646;28;20045;-64
2022/06/25 06:24:13;;;;;;;1.58;1.35;;;;;;;;;;5053918;28;20053;-64
2022/06/25 06:26:40;;;;;;;1.27;1.13;;;;;;;;;;5053594;28;20496;-64
2022/06/25 06:29:06;;;;;;;1.83;1.05;;;;;;;;;;5053583;28;20056;-64
2022/06/25 06:31:33;;;;;;;3.83;1.00;;;;;;;;;;5053294;28;20045;-64
2022/06/25 06:34:00;;;;;;;2.08;1.27;;;;;;;;;;5052456;28;20048;-64
2022/06/25 06:36:26;;;;;;;1.83;1.20;;;;;;;;;;5053740;28;20060;-64
2022/06/25 06:38:53;;;;;;;2.50;1.30;;;;;;;;;;5053622;28;20099;-64
2022/06/25 06:41:20;;;;;;;1.48;1.10;;;;;;;;;;5053191;28;20439;-64
2022/06/25 06:43:46;;;;;;;1.73;1.10;;;;;;;;;;5053243;28;20400;-64
2022/06/25 06:46:14;;;;;;;2.30;1.20;;;;;;;;;;5053055;28;20082;-64
2022/06/25 06:48:41;;;;;;;1.25;1.10;;;;;;;;;;5053605;28;20045;-65
2022/06/25 06:51:07;;;;;;;1.10;1.10;;;;;;;;;;5052954;28;20568;-64
2022/06/25 06:53:34;;;;;;;1.70;1.10;;;;;;;;;;5068522;28;20053;-64
2022/06/25 06:56:01;;;;;;;2.38;1.38;;;;;;;;;;5053242;28;20048;-64
2022/06/25 06:58:29;;;;;;;3.22;1.10;;;;;;;;;;5052882;28;20045;-65
2022/06/25 07:00:56;;;;;;;3.25;1.25;;;;;;;;;;5053775;28;20102;-64
2022/06/25 07:03:23;;;;;;;6.80;1.75;;;;;;;;;;5053898;28;20127;-65
2022/06/25 07:05:54;;;;;;;2.28;1.30;;;;;;;;;;5053671;28;20049;-65
2022/06/25 07:08:21;;;;;;;5.45;1.80;;;;;;;;;;5053069;28;20098;-64
2022/06/25 07:10:48;;;;;;;3.28;1.30;;;;;;;;;;5053177;28;20499;-65
2022/06/25 07:13:14;;;;;;;2.58;1.10;;;;;;;;;;5053679;28;20060;-65
2022/06/25 07:15:41;;;;;;;1.42;1.13;;;;;;;;;;5053734;28;20049;-65
2022/06/25 07:18:08;;;;;;;1.02;0.82;;;;;;;;;;5053402;28;20057;-66
2022/06/25 07:20:34;;;;;;;2.13;1.10;;;;;;;;;;5053390;28;20056;-65
2022/06/25 07:23:01;;;;;;;2.90;1.25;;;;;;;;;;5053118;28;20045;-65
2022/06/25 07:25:28;;;;;;;3.13;1.10;;;;;;;;;;5053254;28;20048;-65
2022/06/25 07:27:55;;;;;;;3.25;1.50;;;;;;;;;;5054698;28;20087;-65
2022/06/25 07:30:21;;;;;;;2.13;0.70;;;;;;;;;;5053823;28;20048;-65
2022/06/25 07:32:48;;;;;;;5.90;1.60;;;;;;;;;;5053788;28;20076;-65
2022/06/25 07:35:15;;;;;;;2.60;1.00;;;;;;;;;;5053333;28;20044;-64
2022/06/25 07:37:42;;;;;;;21.50;4.95;;;;;;;;;;5052445;28;20059;-65
2022/06/25 07:40:09;;;;;;;22.67;6.03;;;;;;;;;;5052091;28;20056;-64
2022/06/25 07:42:36;;;;;;;37.10;8.98;;;;;;;;;;5052174;28;20049;-64
2022/06/25 07:45:03;;;;;;;4.18;1.38;;;;;;;;;;5052325;28;20114;-64
2022/06/25 07:47:36;;;;;;;1.88;1.10;;;;;;;;;;5052207;28;20140;-64
2022/06/25 07:52:51;;;;;;;2.83;1.30;;;;;;;;;;5051818;28;20068;-64
2022/06/25 07:55:19;;;;;;;1.38;1.10;;;;;;;;;;5052126;28;20454;-64
2022/06/25 07:57:46;;;;;;;1.73;1.00;;;;;;;;;;5051986;28;20049;-64
2022/06/25 08:00:13;;;;;;;2.92;0.93;;;;;;;;;;5052262;28;20377;-64
2022/06/25 08:02:40;;;;;;;2.45;1.10;;;;;;;;;;5051898;28;20045;-64
2022/06/25 08:05:06;;;;;;;4.75;1.25;;;;;;;;;;5052311;28;20059;-64
2022/06/25 08:07:33;;;;;;;2.22;1.00;;;;;;;;;;5052464;28;20064;-64
2022/06/25 08:10:01;;;;;;;1.75;1.00;;;;;;;;;;5051929;28;20495;-64
2022/06/25 08:12:28;;;;;;;2.80;1.20;;;;;;;;;;5051713;28;20041;-64
2022/06/25 08:14:55;;;;;;;4.25;1.50;;;;;;;;;;5051577;28;20074;-64
2022/06/25 08:17:21;;;;;;;5.20;1.92;;;;;;;;;;5052126;28;20099;-64
2022/06/25 08:19:48;;;;;;;4.20;1.27;;;;;;;;;;5050702;28;20080;-65
2022/06/25 08:22:15;;;;;;;3.22;1.10;;;;;;;;;;5051598;28;20056;-64
2022/06/25 08:24:41;;;;;;;2.58;1.42;;;;;;;;;;5051804;28;20467;-65
2022/06/25 08:27:10;;;;;;;5.47;1.08;;;;;;;;;;5051535;28;20106;-64
2022/06/25 08:29:36;;;;;;;1.85;1.08;;;;;;;;;;5051719;28;20455;-64
2022/06/25 08:32:03;;;;;;;3.75;1.10;;;;;;;;;;5051635;28;20067;-65
2022/06/25 08:34:30;;;;;;;2.90;1.25;;;;;;;;;;5051458;28;20346;-64
2022/06/25 08:36:57;;;;;;;2.33;1.45;;;;;;;;;;5051469;28;20580;-64
2022/06/25 08:39:23;;;;;;;2.22;1.30;;;;;;;;;;5051696;28;20049;-64
2022/06/25 08:41:50;;;;;;;2.15;1.38;;;;;;;;;;5050286;28;20049;-64
2022/06/25 08:44:17;;;;;;;2.35;1.13;;;;;;;;;;5051175;28;20511;-64
2022/06/25 08:46:43;;;;;;;2.72;1.58;;;;;;;;;;5051265;28;20083;-64
2022/06/25 08:49:10;;;;;;;2.15;1.45;;;;;;;;;;5051631;28;20094;-64
2022/06/25 08:51:37;;;;;;;3.17;1.40;;;;;;;;;;5051507;28;20130;-64
2022/06/25 08:54:04;;;;;;;5.20;1.45;;;;;;;;;;5066806;28;20060;-64
2022/06/25 08:56:34;;;;;;;3.17;1.20;;;;;;;;;;5051340;28;20534;-64
2022/06/25 08:59:00;;;;;;;3.80;2.42;;;;;;;;;;5051256;28;20451;-64
2022/06/25 09:01:27;;;;;;;1.95;1.00;;;;;;;;;;5051190;28;20259;-64
2022/06/25 09:03:54;;;;;;;7.38;1.50;;;;;;;;;;5051460;28;20114;-64
2022/06/25 09:06:21;;;;;;;1.80;1.17;;;;;;;;;;5051221;28;20053;-64
2022/06/25 09:09:13;;;;;;;5.00;1.58;;;;;;;;;;5051514;28;20049;-64
2022/06/25 09:11:57;;;;;;;39.55;10.45;;;;;;;;;;5051064;28;20523;-64
2022/06/25 09:14:27;;;;;;;1.95;1.48;;;;;;;;;;5051305;28;20053;-64
2022/06/25 09:17:12;;;;;;;2.10;1.20;;;;;;;;;;5051724;28;20132;-64
2022/06/25 09:19:43;;;;;;;1.30;1.20;;;;;;;;;;5051325;28;20400;-65
2022/06/25 09:22:12;;;;;;;2.03;1.30;;;;;;;;;;5050886;28;20124;-64
2022/06/25 09:24:46;;;;;;;2.30;1.50;;;;;;;;;;5051201;28;20102;-64
2022/06/25 09:27:15;;;;;;;8.43;3.50;;;;;;;;;;5066686;28;20056;-64
2022/06/25 09:29:44;;;;;;;1.60;1.30;;;;;;;;;;5050189;28;20048;-65
2022/06/25 09:32:11;;;;;;;4.78;1.30;;;;;;;;;;5054499;28;20561;-64
2022/06/25 09:34:38;;;;;;;3.65;1.52;;;;;;;;;;5054468;28;20140;-64
2022/06/25 09:37:19;;;;;;;3.28;1.15;;;;;;;;;;5054636;28;20051;-65
2022/06/25 09:39:47;;;;;;;2.92;1.40;;;;;;;;;;5054782;28;20057;-65
2022/06/25 09:42:22;;;;;;;3.95;2.03;;;;;;;;;;5054440;28;20049;-65
2022/06/25 09:44:58;;;;;;;2.70;1.73;;;;;;;;;;5054837;28;20048;-65
2022/06/25 09:47:26;;;;;;;4.30;1.50;;;;;;;;;;5053330;28;20119;-65
2022/06/25 09:50:13;;;;;;;2.75;2.03;;;;;;;;;;5054662;28;20107;-65
2022/06/25 09:52:52;;;;;;;2.20;1.27;;;;;;;;;;5054175;28;20049;-64
2022/06/25 09:55:20;;;;;;;1.48;1.10;;;;;;;;;;5054125;28;20057;-64
2022/06/25 09:57:47;;;;;;;1.23;1.10;;;;;;;;;;5054180;28;20086;-64
2022/06/25 10:00:14;;;;;;;1.88;0.95;;;;;;;;;;5054394;28;20468;-64
2022/06/25 10:02:46;;;;;;;1.20;1.10;;;;;;;;;;5053989;28;20053;-64
2022/06/25 10:05:13;;;;;;;2.17;1.02;;;;;;;;;;5054001;28;20562;-64
2022/06/25 10:08:01;;;;;;;1.25;0.90;;;;;;;;;;5053987;28;20053;-65
2022/06/25 10:10:30;;;;;;;2.45;1.13;;;;;;;;;;5054241;28;20106;-65
2022/06/25 10:12:56;;;;;;;2.85;1.17;;;;;;;;;;5052720;28;20099;-64
2022/06/25 10:15:23;;;;;;;2.90;1.23;;;;;;;;;;5052589;28;20083;-65
2022/06/25 10:17:54;;;;;;;1.33;1.20;;;;;;;;;;5053849;28;20515;-65
2022/06/25 10:20:21;;;;;;;3.53;1.10;;;;;;;;;;5053919;28;20049;-65
2022/06/25 10:22:49;;;;;;;1.65;1.20;;;;;;;;;;5053448;28;20056;-65
2022/06/25 10:25:21;;;;;;;2.20;1.27;;;;;;;;;;5053598;28;20045;-65
2022/06/25 10:27:49;;;;;;;1.20;1.00;;;;;;;;;;5052563;28;20053;-65
2022/06/25 10:30:42;;;;;;;3.75;1.10;;;;;;;;;;5053894;28;20048;-65
2022/06/25 10:33:08;;;;;;;;;;;;;;;;;;5053910;28;20496;-65
2022/06/25 10:35:41;;;;;;;2.42;1.08;;;;;;;;;;5052434;28;19924;-65
2022/06/25 10:38:10;;;;;;;1.45;1.13;;;;;;;;;;5053794;28;20111;-64
2022/06/25 10:43:49;;;;;;;1.92;1.00;;;;;;;;;;5052993;28;20045;-65
2022/06/25 10:46:22;;;;;;;1.25;1.10;;;;;;;;;;5053464;28;20053;-65
2022/06/25 10:48:57;;;;;;;2.25;1.40;;;;;;;;;;5053507;28;20073;-65
2022/06/25 10:51:32;;;;;;;1.35;1.20;;;;;;;;;;5053380;28;20119;-65
2022/06/25 10:54:00;;;;;;;1.88;1.10;;;;;;;;;;5053155;28;20053;-65
2022/06/25 10:56:31;;;;;;;2.35;1.42;;;;;;;;;;5053041;28;20112;-66
2022/06/25 10:58:58;;;;;;;4.72;1.35;;;;;;;;;;5053234;28;20052;-64
2022/06/25 11:01:28;;;;;;;2.50;1.20;;;;;;;;;;5052955;28;20118;-65
2022/06/25 11:03:57;;;;;;;1.60;0.93;;;;;;;;;;5053015;28;20041;-64
2022/06/25 11:06:29;;;;;;;4.10;1.65;;;;;;;;;;5052924;28;20400;-64
2022/06/25 11:09:16;;;;;;;1.95;1.05;;;;;;;;;;5053141;28;20068;-64
2022/06/25 11:11:46;;;;;;;4.05;1.40;;;;;;;;;;5052629;28;20430;-64
2022/06/25 11:14:14;;;;;;;2.28;1.10;;;;;;;;;;5052852;28;20049;-64
2022/06/25 11:16:41;;;;;;;3.58;1.20;;;;;;;;;;5052833;28;20060;-64
2022/06/25 11:19:07;;;;;;;3.33;1.30;;;;;;;;;;5052873;28;20110;-65
2022/06/25 11:21:36;;;;;;;1.50;1.15;;;;;;;;;;5052424;28;20049;-64
2022/06/25 11:24:12;;;;;;;1.10;1.00;;;;;;;;;;5052500;28;20476;-65
2022/06/25 11:29:27;;;;;;;2.42;0.95;;;;;;;;;;5052501;28;20190;-65
2022/06/25 11:31:55;;;;;;;4.03;1.38;;;;;;;;;;5052183;28;20048;-65
2022/06/25 11:34:23;;;;;;;1.45;0.75;;;;;;;;;;5052553;28;20045;-65
2022/06/25 11:37:03;;;;;;;2.13;1.02;;;;;;;;;;5052540;28;20049;-66
2022/06/25 11:39:30;;;;;;;1.55;1.00;;;;;;;;;;5052424;28;20059;-65
2022/06/25 11:41:57;;;;;;;4.97;1.50;;;;;;;;;;5051997;28;20049;-65
2022/06/25 11:44:24;;;;;;;2.30;1.30;;;;;;;;;;5052094;28;20048;-64
2022/06/25 11:46:52;;;;;;;2.60;0.82;;;;;;;;;;5051971;28;20057;-65
2022/06/25 11:49:20;;;;;;;3.50;1.00;;;;;;;;;;5052281;28;20099;-65
2022/06/25 11:51:51;;;;;;;1.77;1.08;;;;;;;;;;5051992;28;20052;-64
2022/06/25 11:54:22;;;;;;;1.20;1.00;;;;;;;;;;5051757;28;20052;-64
2022/06/25 11:56:51;;;;;;;2.07;0.90;;;;;;;;;;5052094;28;20103;-64
2022/06/25 11:59:30;;;;;;;1.98;1.30;;;;;;;;;;5052167;28;20063;-65
2022/06/25 12:01:58;;;;;;;2.38;1.10;;;;;;;;;;5051898;28;20114;-64
2022/06/25 12:04:26;;;;;;;1.85;1.10;;;;;;;;;;5051811;28;20048;-65
2022/06/25 12:06:53;;;;;;;1.27;1.00;;;;;;;;;;5051901;28;20089;-65
2022/06/25 12:09:21;;;;;;;2.30;1.30;;;;;;;;;;5052007;28;20495;-65
2022/06/25 12:11:55;;;;;;;2.63;1.08;;;;;;;;;;5050556;28;20052;-65
2022/06/25 12:14:26;;;;;;;1.33;0.93;;;;;;;;;;5051882;28;20110;-65
2022/06/25 12:16:53;;;;;;;1.13;0.90;;;;;;;;;;5051716;28;20450;-65
2022/06/25 12:19:20;;;;;;;2.45;1.15;;;;;;;;;;5051590;28;20107;-65
2022/06/25 12:21:47;;;;;;;1.35;1.00;;;;;;;;;;5051546;28;20551;-65
2022/06/25 12:24:16;;;;;;;1.80;0.80;;;;;;;;;;5051668;28;20079;-64
2022/06/25 12:26:51;;;;;;;2.20;1.00;;;;;;;;;;5051691;28;20057;-65
2022/06/25 12:29:19;;;;;;;1.50;0.90;;;;;;;;;;5052229;28;20107;-65
2022/06/25 12:31:58;;;;;;;1.80;1.00;;;;;;;;;;5051563;28;20463;-65
2022/06/25 12:34:26;;;;;;;2.97;1.40;;;;;;;;;;5051843;28;20052;-65
2022/06/25 12:36:54;;;;;;;1.08;0.98;;;;;;;;;;5051512;28;20053;-65
2022/06/25 12:39:31;;;;;;;2.40;1.10;;;;;;;;;;5051652;28;20049;-65
2022/06/25 12:42:12;;;;;;;1.40;0.80;;;;;;;;;;5051405;28;20126;-66
2022/06/25 12:44:41;;;;;;;1.35;0.93;;;;;;;;;;5050569;28;20045;-65
2022/06/25 12:47:15;;;;;;;1.80;0.90;;;;;;;;;;5051756;28;20068;-65
2022/06/25 12:49:45;;;;;;;0.70;0.63;;;;;;;;;;5051529;28;20053;-64
2022/06/25 12:52:13;;;;;;;1.90;0.70;;;;;;;;;;5051338;28;20095;-64
2022/06/25 12:54:52;;;;;;;0.63;0.60;;;;;;;;;;5051843;28;20044;-64
2022/06/25 12:57:21;;;;;;;2.25;0.70;;;;;;;;;;5052199;28;20466;-65
2022/06/25 12:59:48;;;;;;;2.22;0.77;;;;;;;;;;5066743;28;20053;-64
2022/06/25 13:02:14;;;;;;;0.75;0.75;;;;;;;;;;5051253;28;20094;-65
2022/06/25 13:04:42;;;;;;;1.27;0.80;;;;;;;;;;5051297;28;20052;-65
2022/06/25 13:07:11;;;;;;;1.25;0.75;;;;;;;;;;5055190;28;20079;-65
2022/06/25 13:09:39;;;;;;;0.57;0.57;;;;;;;;;;5070423;28;20482;-65
2022/06/25 13:12:22;;;;;;;1.98;0.73;;;;;;;;;;5055102;28;20427;-65
2022/06/25 13:14:48;;;;;;;0.55;0.45;;;;;;;;;;5055030;28;20052;-65
2022/06/25 13:17:15;;;;;;;0.75;0.75;;;;;;;;;;5055292;28;20060;-65
2022/06/25 13:19:42;;;;;;;1.63;0.60;;;;;;;;;;5054899;28;20045;-65
2022/06/25 13:22:09;;;;;;;0.95;0.60;;;;;;;;;;5054914;28;20106;-65
2022/06/25 13:24:36;;;;;;;0.70;0.60;;;;;;;;;;5054608;28;20068;-65
2022/06/25 13:27:03;;;;;;;0.75;0.65;;;;;;;;;;5054886;28;20495;-65
2022/06/25 13:29:30;;;;;;;1.15;0.88;;;;;;;;;;5054833;28;20048;-65
2022/06/25 13:31:59;;;;;;;0.65;0.60;;;;;;;;;;5054608;28;20056;-65
2022/06/25 13:34:27;;;;;;;3.22;0.70;;;;;;;;;;5054669;28;20124;-64
2022/06/25 13:36:55;;;;;;;2.45;0.57;;;;;;;;;;5054656;28;20045;-64
2022/06/25 13:39:22;;;;;;;1.05;0.70;;;;;;;;;;5054685;28;20045;-65
2022/06/25 13:41:50;;;;;;;1.92;0.65;;;;;;;;;;5054576;28;20103;-65
2022/06/25 13:44:18;;;;;;;0.88;0.68;;;;;;;;;;5054616;28;20041;-64
2022/06/25 13:46:47;;;;;;;1.65;0.70;;;;;;;;;;5054500;28;20049;-65
2022/06/25 13:49:14;;;;;;;1.40;0.60;;;;;;;;;;5054642;28;20132;-65
2022/06/25 13:51:40;;;;;;;1.35;0.63;;;;;;;;;;5054413;28;20064;-65
2022/06/25 13:54:07;;;;;;;1.58;0.77;;;;;;;;;;5054479;28;20057;-65
2022/06/25 13:56:35;;;;;;;0.98;0.60;;;;;;;;;;5054241;28;20053;-66
2022/06/25 13:59:01;;;;;;;1.58;1.00;;;;;;;;;;5054211;28;20049;-65
2022/06/25 14:01:28;;;;;;;0.80;0.60;;;;;;;;;;5053893;28;20052;-65
2022/06/25 14:03:55;;;;;;;0.70;0.60;;;;;;;;;;5054188;28;20049;-65
2022/06/25 14:06:21;;;;;;;1.48;1.38;;;;;;;;;;5054099;28;20048;-65
2022/06/25 14:08:48;;;;;;;0.85;0.52;;;;;;;;;;5054321;28;20048;-65
2022/06/25 14:11:15;;;;;;;1.50;0.93;;;;;;;;;;5053879;28;20470;-65
2022/06/25 14:13:41;;;;;;;2.17;1.05;;;;;;;;;;5053881;28;20107;-65
2022/06/25 14:16:08;;;;;;;0.60;0.50;;;;;;;;;;5053572;28;20088;-65
2022/06/25 14:18:35;;;;;;;0.63;0.60;;;;;;;;;;5052658;28;20051;-65
2022/06/25 14:21:03;;;;;;;2.03;0.70;;;;;;;;;;5053578;28;20424;-65
2022/06/25 14:23:30;;;;;;;0.60;0.60;;;;;;;;;;5053725;28;20053;-65
2022/06/25 14:25:57;;;;;;;1.40;0.60;;;;;;;;;;5053608;28;20083;-65
2022/06/25 14:28:24;;;;;;;1.52;0.70;;;;;;;;;;5053787;28;20049;-65
2022/06/25 14:30:50;;;;;;;1.50;0.60;;;;;;;;;;5053459;28;20060;-66
2022/06/25 14:33:17;;;;;;;0.70;0.70;;;;;;;;;;5053710;28;20091;-65
2022/06/25 14:44:01;;;;;;;3.30;0.60;;;;;;;;;;5053429;28;20040;-65
2022/06/25 14:46:28;;;;;;;1.30;0.73;;;;;;;;;;5053219;28;20103;-65
2022/06/25 14:48:57;;;;;;;0.85;0.82;;;;;;;;;;5053301;28;20084;-64
2022/06/25 14:51:25;;;;;;;1.10;0.85;;;;;;;;;;5053191;28;20458;-64
2022/06/25 14:53:52;;;;;;;1.08;0.80;;;;;;;;;;5053615;28;20049;-65
2022/06/25 14:56:19;;;;;;;0.85;0.60;;;;;;;;;;5053268;28;20296;-64
2022/06/25 14:58:46;;;;;;;1.25;1.00;;;;;;;;;;5053389;28;20049;-65
2022/06/25 15:01:13;;;;;;;1.63;0.70;;;;;;;;;;5053581;28;20057;-65
2022/06/25 15:03:40;;;;;;;1.20;0.85;;;;;;;;;;5053067;28;20057;-64
2022/06/25 15:06:06;;;;;;;1.92;0.90;;;;;;;;;;5052779;28;20084;-64
2022/06/25 15:08:33;;;;;;;1.10;1.00;;;;;;;;;;5051998;28;20052;-64
2022/06/25 15:11:00;;;;;;;1.00;0.90;;;;;;;;;;5053141;28;20049;-64
2022/06/25 15:13:26;;;;;;;1.27;0.90;;;;;;;;;;5052888;28;20056;-64
2022/06/25 15:16:00;;;;;;;1.48;1.05;;;;;;;;;;5098582;22;20072;-65
2022/06/25 15:18:27;;;;;;;1.70;1.00;;;;;;;;;;5072765;28;20053;-65
2022/06/25 15:20:53;;;;;;;1.02;0.90;;;;;;;;;;5071424;28;20535;-65
2022/06/25 15:23:20;;;;;;;1.85;0.73;;;;;;;;;;5072419;28;20569;-65